sensor_id;sensor_type;location;lat;lon;timestamp;temperature;humidity
23137;DHT22;11737;50.558;7.258;2023-04-08T00:00:20;11.80;99.90
23137;DHT22;11737;50.558;7.258;2023-04-08T00:02:47;11.70;99.90
23137;DHT22;11737;50.558;7.258;2023-04-08T00:05:15;11.70;99.90
23137;DHT22;11737;50.558;7.258;2023-04-08T00:07:42;11.80;99.90
23137;DHT22;11737;50.558;7.258;2023-04-08T00:10:10;11.70;99.90
23137;DHT22;11737;50.558;7.258;2023-04-08T00:12:37;11.80;99.90
23137;DHT22;11737;50.558;7.258;2023-04-08T00:15:05;11.70;99.90
23137;DHT22;11737;50.558;7.258;2023-04-08T00:17:33;11.80;99.90
23137;DHT22;11737;50.558;7.258;2023-04-08T00:20:01;11.80;99.90
23137;DHT22;11737;50.558;7.258;2023-04-08T00:22:29;11.80;99.90
23137;DHT22;11737;50.558;7.258;2023-04-08T00:24:57;11.80;99.90
23137;DHT22;11737;50.558;7.258;2023-04-08T00:27:24;11.70;99.90
23137;DHT22;11737;50.558;7.258;2023-04-08T00:29:52;11.80;99.90
23137;DHT22;11737;50.558;7.258;2023-04-08T00:32:19;11.70;99.90
23137;DHT22;11737;50.558;7.258;2023-04-08T00:34:47;11.70;99.90
23137;DHT22;11737;50.558;7.258;2023-04-08T00:37:16;11.70;99.90
23137;DHT22;11737;50.558;7.258;2023-04-08T00:39:43;11.70;99.90
23137;DHT22;11737;50.558;7.258;2023-04-08T00:42:11;11.70;99.90
23137;DHT22;11737;50.558;7.258;2023-04-08T00:44:38;11.70;99.90
23137;DHT22;11737;50.558;7.258;2023-04-08T00:47:06;11.70;99.90
23137;DHT22;11737;50.558;7.258;2023-04-08T00:49:34;11.70;99.90
23137;DHT22;11737;50.558;7.258;2023-04-08T00:52:01;11.70;99.90
23137;DHT22;11737;50.558;7.258;2023-04-08T00:54:30;11.70;99.90
23137;DHT22;11737;50.558;7.258;2023-04-08T00:56:58;11.70;99.90
23137;DHT22;11737;50.558;7.258;2023-04-08T00:59:28;11.70;99.90
23137;DHT22;11737;50.558;7.258;2023-04-08T01:02:14;11.70;99.90
23137;DHT22;11737;50.558;7.258;2023-04-08T01:07:33;11.70;99.90
23137;DHT22;11737;50.558;7.258;2023-04-08T01:12:55;11.70;99.90
23137;DHT22;11737;50.558;7.258;2023-04-08T01:15:24;11.70;99.90
23137;DHT22;11737;50.558;7.258;2023-04-08T01:17:54;11.70;99.90
23137;DHT22;11737;50.558;7.258;2023-04-08T01:20:26;11.70;99.90
23137;DHT22;11737;50.558;7.258;2023-04-08T01:23:16;11.70;99.90
23137;DHT22;11737;50.558;7.258;2023-04-08T01:28:33;11.70;99.90
23137;DHT22;11737;50.558;7.258;2023-04-08T01:31:02;11.60;99.90
23137;DHT22;11737;50.558;7.258;2023-04-08T01:33:30;11.70;99.90
23137;DHT22;11737;50.558;7.258;2023-04-08T01:35:59;11.70;99.90
23137;DHT22;11737;50.558;7.258;2023-04-08T01:38:27;11.70;99.90
23137;DHT22;11737;50.558;7.258;2023-04-08T01:40:56;11.60;99.90
23137;DHT22;11737;50.558;7.258;2023-04-08T01:43:24;11.60;99.90
23137;DHT22;11737;50.558;7.258;2023-04-08T01:45:53;11.60;99.90
23137;DHT22;11737;50.558;7.258;2023-04-08T01:48:23;11.60;99.90
23137;DHT22;11737;50.558;7.258;2023-04-08T01:50:51;11.60;99.90
23137;DHT22;11737;50.558;7.258;2023-04-08T01:53:19;11.60;99.90
23137;DHT22;11737;50.558;7.258;2023-04-08T01:55:49;11.60;99.90
23137;DHT22;11737;50.558;7.258;2023-04-08T01:58:20;11.60;99.90
23137;DHT22;11737;50.558;7.258;2023-04-08T02:00:48;11.60;99.90
23137;DHT22;11737;50.558;7.258;2023-04-08T02:03:19;11.60;99.90
23137;DHT22;11737;50.558;7.258;2023-04-08T02:05:48;11.60;99.90
23137;DHT22;11737;50.558;7.258;2023-04-08T02:08:15;11.60;99.90
23137;DHT22;11737;50.558;7.258;2023-04-08T02:10:43;11.60;99.90
23137;DHT22;11737;50.558;7.258;2023-04-08T02:13:10;11.60;99.90
23137;DHT22;11737;50.558;7.258;2023-04-08T02:18:26;11.60;99.90
23137;DHT22;11737;50.558;7.258;2023-04-08T02:21:17;11.60;99.90
23137;DHT22;11737;50.558;7.258;2023-04-08T02:23:26;11.60;99.90
23137;DHT22;11737;50.558;7.258;2023-04-08T02:25:55;11.50;99.90
23137;DHT22;11737;50.558;7.258;2023-04-08T02:28:24;11.50;99.90
23137;DHT22;11737;50.558;7.258;2023-04-08T02:30:53;11.50;99.90
23137;DHT22;11737;50.558;7.258;2023-04-08T02:36:13;11.40;99.90
23137;DHT22;11737;50.558;7.258;2023-04-08T02:38:41;11.40;99.90
23137;DHT22;11737;50.558;7.258;2023-04-08T02:41:08;11.40;99.90
23137;DHT22;11737;50.558;7.258;2023-04-08T02:43:36;11.30;99.90
23137;DHT22;11737;50.558;7.258;2023-04-08T02:46:03;11.30;99.90
23137;DHT22;11737;50.558;7.258;2023-04-08T02:48:32;11.40;99.90
23137;DHT22;11737;50.558;7.258;2023-04-08T02:51:00;11.40;99.90
23137;DHT22;11737;50.558;7.258;2023-04-08T02:53:27;11.40;99.90
23137;DHT22;11737;50.558;7.258;2023-04-08T02:55:55;11.40;99.90
23137;DHT22;11737;50.558;7.258;2023-04-08T02:58:22;11.40;99.90
23137;DHT22;11737;50.558;7.258;2023-04-08T03:00:50;11.40;99.90
23137;DHT22;11737;50.558;7.258;2023-04-08T03:03:17;11.40;99.90
23137;DHT22;11737;50.558;7.258;2023-04-08T03:05:45;11.40;99.90
23137;DHT22;11737;50.558;7.258;2023-04-08T03:08:12;11.40;99.90
23137;DHT22;11737;50.558;7.258;2023-04-08T03:10:40;11.40;99.90
23137;DHT22;11737;50.558;7.258;2023-04-08T03:13:07;11.30;99.90
23137;DHT22;11737;50.558;7.258;2023-04-08T03:15:35;11.30;99.90
23137;DHT22;11737;50.558;7.258;2023-04-08T03:18:03;11.40;99.90
23137;DHT22;11737;50.558;7.258;2023-04-08T03:20:31;11.40;99.90
23137;DHT22;11737;50.558;7.258;2023-04-08T03:22:58;11.40;99.90
23137;DHT22;11737;50.558;7.258;2023-04-08T03:25:26;11.30;99.90
23137;DHT22;11737;50.558;7.258;2023-04-08T03:27:55;11.30;99.90
23137;DHT22;11737;50.558;7.258;2023-04-08T03:30:22;11.10;99.90
23137;DHT22;11737;50.558;7.258;2023-04-08T03:32:50;11.10;99.90
23137;DHT22;11737;50.558;7.258;2023-04-08T03:35:17;11.10;99.90
23137;DHT22;11737;50.558;7.258;2023-04-08T03:37:45;11.10;99.90
23137;DHT22;11737;50.558;7.258;2023-04-08T03:40:12;11.00;99.90
23137;DHT22;11737;50.558;7.258;2023-04-08T03:42:40;11.00;99.90
23137;DHT22;11737;50.558;7.258;2023-04-08T03:45:08;11.00;99.90
23137;DHT22;11737;50.558;7.258;2023-04-08T03:47:35;11.10;99.90
23137;DHT22;11737;50.558;7.258;2023-04-08T03:50:03;11.10;99.90
23137;DHT22;11737;50.558;7.258;2023-04-08T03:52:30;11.20;99.90
23137;DHT22;11737;50.558;7.258;2023-04-08T03:54:58;11.10;99.90
23137;DHT22;11737;50.558;7.258;2023-04-08T03:57:25;11.00;99.90
23137;DHT22;11737;50.558;7.258;2023-04-08T03:59:53;11.00;99.90
23137;DHT22;11737;50.558;7.258;2023-04-08T04:02:21;11.00;99.90
23137;DHT22;11737;50.558;7.258;2023-04-08T04:04:48;11.10;99.90
23137;DHT22;11737;50.558;7.258;2023-04-08T04:07:16;11.20;99.90
23137;DHT22;11737;50.558;7.258;2023-04-08T04:09:43;11.10;99.90
23137;DHT22;11737;50.558;7.258;2023-04-08T04:12:11;11.10;99.90
23137;DHT22;11737;50.558;7.258;2023-04-08T04:17:38;11.20;99.90
23137;DHT22;11737;50.558;7.258;2023-04-08T04:20:06;11.30;99.90
23137;DHT22;11737;50.558;7.258;2023-04-08T04:22:34;11.30;99.90
23137;DHT22;11737;50.558;7.258;2023-04-08T04:25:01;11.30;99.90
23137;DHT22;11737;50.558;7.258;2023-04-08T04:27:29;11.30;99.90
23137;DHT22;11737;50.558;7.258;2023-04-08T04:29:56;11.30;99.90
23137;DHT22;11737;50.558;7.258;2023-04-08T04:32:24;11.40;99.90
23137;DHT22;11737;50.558;7.258;2023-04-08T04:34:51;11.40;99.90
23137;DHT22;11737;50.558;7.258;2023-04-08T04:37:19;11.30;99.90
23137;DHT22;11737;50.558;7.258;2023-04-08T04:39:47;11.30;99.90
23137;DHT22;11737;50.558;7.258;2023-04-08T04:42:14;11.30;99.90
23137;DHT22;11737;50.558;7.258;2023-04-08T04:44:42;11.30;99.90
23137;DHT22;11737;50.558;7.258;2023-04-08T04:47:10;11.30;99.90
23137;DHT22;11737;50.558;7.258;2023-04-08T04:49:37;11.30;99.90
23137;DHT22;11737;50.558;7.258;2023-04-08T04:52:05;11.30;99.90
23137;DHT22;11737;50.558;7.258;2023-04-08T04:54:33;11.30;99.90
23137;DHT22;11737;50.558;7.258;2023-04-08T04:57:00;11.30;99.90
23137;DHT22;11737;50.558;7.258;2023-04-08T04:59:28;11.30;99.90
23137;DHT22;11737;50.558;7.258;2023-04-08T05:01:56;11.30;99.90
23137;DHT22;11737;50.558;7.258;2023-04-08T05:04:24;11.30;99.90
23137;DHT22;11737;50.558;7.258;2023-04-08T05:06:52;11.30;99.90
23137;DHT22;11737;50.558;7.258;2023-04-08T05:09:19;11.30;99.90
23137;DHT22;11737;50.558;7.258;2023-04-08T05:11:47;11.30;99.90
23137;DHT22;11737;50.558;7.258;2023-04-08T05:14:14;11.40;99.90
23137;DHT22;11737;50.558;7.258;2023-04-08T05:16:42;11.40;99.90
23137;DHT22;11737;50.558;7.258;2023-04-08T05:19:09;11.40;99.90
23137;DHT22;11737;50.558;7.258;2023-04-08T05:21:37;11.40;99.90
23137;DHT22;11737;50.558;7.258;2023-04-08T05:24:04;11.40;99.90
23137;DHT22;11737;50.558;7.258;2023-04-08T05:26:32;11.40;99.90
23137;DHT22;11737;50.558;7.258;2023-04-08T05:28:59;11.40;99.90
23137;DHT22;11737;50.558;7.258;2023-04-08T05:31:27;11.40;99.90
23137;DHT22;11737;50.558;7.258;2023-04-08T05:33:55;11.40;99.90
23137;DHT22;11737;50.558;7.258;2023-04-08T05:36:22;11.40;99.90
23137;DHT22;11737;50.558;7.258;2023-04-08T05:38:49;11.50;99.90
23137;DHT22;11737;50.558;7.258;2023-04-08T05:41:17;11.50;99.90
23137;DHT22;11737;50.558;7.258;2023-04-08T05:43:44;11.50;99.90
23137;DHT22;11737;50.558;7.258;2023-04-08T05:46:12;11.60;99.90
23137;DHT22;11737;50.558;7.258;2023-04-08T05:48:59;11.60;99.90
23137;DHT22;11737;50.558;7.258;2023-04-08T05:51:26;11.60;99.90
23137;DHT22;11737;50.558;7.258;2023-04-08T05:53:54;11.70;99.90
23137;DHT22;11737;50.558;7.258;2023-04-08T05:56:22;11.70;99.90
23137;DHT22;11737;50.558;7.258;2023-04-08T05:58:49;11.70;99.90
23137;DHT22;11737;50.558;7.258;2023-04-08T06:01:16;11.70;99.90
23137;DHT22;11737;50.558;7.258;2023-04-08T06:03:44;11.80;99.90
23137;DHT22;11737;50.558;7.258;2023-04-08T06:06:12;11.80;99.90
23137;DHT22;11737;50.558;7.258;2023-04-08T06:08:40;11.90;99.90
23137;DHT22;11737;50.558;7.258;2023-04-08T06:11:07;12.00;99.90
23137;DHT22;11737;50.558;7.258;2023-04-08T06:13:35;12.00;99.90
23137;DHT22;11737;50.558;7.258;2023-04-08T06:18:57;12.10;99.90
23137;DHT22;11737;50.558;7.258;2023-04-08T06:21:25;12.10;99.90
23137;DHT22;11737;50.558;7.258;2023-04-08T06:23:53;12.00;99.90
23137;DHT22;11737;50.558;7.258;2023-04-08T06:26:20;12.00;99.90
23137;DHT22;11737;50.558;7.258;2023-04-08T06:28:48;12.00;99.90
23137;DHT22;11737;50.558;7.258;2023-04-08T06:31:15;12.00;99.90
23137;DHT22;11737;50.558;7.258;2023-04-08T06:33:43;12.00;99.90
23137;DHT22;11737;50.558;7.258;2023-04-08T06:36:10;12.00;99.90
23137;DHT22;11737;50.558;7.258;2023-04-08T06:38:39;12.00;99.90
23137;DHT22;11737;50.558;7.258;2023-04-08T06:41:07;12.00;99.90
23137;DHT22;11737;50.558;7.258;2023-04-08T06:43:35;12.00;99.90
23137;DHT22;11737;50.558;7.258;2023-04-08T06:46:03;12.10;99.90
23137;DHT22;11737;50.558;7.258;2023-04-08T06:48:30;12.00;99.90
23137;DHT22;11737;50.558;7.258;2023-04-08T06:50:59;12.00;99.90
23137;DHT22;11737;50.558;7.258;2023-04-08T06:53:27;12.10;99.90
23137;DHT22;11737;50.558;7.258;2023-04-08T06:55:56;12.10;99.90
23137;DHT22;11737;50.558;7.258;2023-04-08T06:58:24;12.10;99.90
23137;DHT22;11737;50.558;7.258;2023-04-08T07:00:53;12.20;99.90
23137;DHT22;11737;50.558;7.258;2023-04-08T07:03:22;12.30;99.90
23137;DHT22;11737;50.558;7.258;2023-04-08T07:05:49;12.30;99.90
23137;DHT22;11737;50.558;7.258;2023-04-08T07:08:17;12.40;99.90
23137;DHT22;11737;50.558;7.258;2023-04-08T07:10:44;12.50;99.90
23137;DHT22;11737;50.558;7.258;2023-04-08T07:13:12;12.50;99.90
23137;DHT22;11737;50.558;7.258;2023-04-08T07:15:40;12.50;99.90
23137;DHT22;11737;50.558;7.258;2023-04-08T07:18:08;12.50;99.90
23137;DHT22;11737;50.558;7.258;2023-04-08T07:20:36;12.50;99.90
23137;DHT22;11737;50.558;7.258;2023-04-08T07:23:04;12.50;99.90
23137;DHT22;11737;50.558;7.258;2023-04-08T07:25:32;12.60;99.90
23137;DHT22;11737;50.558;7.258;2023-04-08T07:28:02;12.60;99.90
23137;DHT22;11737;50.558;7.258;2023-04-08T07:30:29;12.70;99.90
23137;DHT22;11737;50.558;7.258;2023-04-08T07:32:57;12.80;99.90
23137;DHT22;11737;50.558;7.258;2023-04-08T07:35:24;12.80;99.90
23137;DHT22;11737;50.558;7.258;2023-04-08T07:37:53;12.80;99.90
23137;DHT22;11737;50.558;7.258;2023-04-08T07:40:21;12.90;99.90
23137;DHT22;11737;50.558;7.258;2023-04-08T07:42:48;13.00;99.90
23137;DHT22;11737;50.558;7.258;2023-04-08T07:45:16;13.00;99.90
23137;DHT22;11737;50.558;7.258;2023-04-08T07:47:44;13.20;99.90
23137;DHT22;11737;50.558;7.258;2023-04-08T07:50:11;13.30;99.90
23137;DHT22;11737;50.558;7.258;2023-04-08T07:52:39;13.40;99.90
23137;DHT22;11737;50.558;7.258;2023-04-08T07:55:06;13.30;99.90
23137;DHT22;11737;50.558;7.258;2023-04-08T07:57:34;13.20;99.90
23137;DHT22;11737;50.558;7.258;2023-04-08T08:00:02;13.00;99.90
23137;DHT22;11737;50.558;7.258;2023-04-08T08:02:30;13.00;99.90
23137;DHT22;11737;50.558;7.258;2023-04-08T08:04:57;13.00;99.90
23137;DHT22;11737;50.558;7.258;2023-04-08T08:07:28;13.00;99.90
23137;DHT22;11737;50.558;7.258;2023-04-08T08:09:56;13.20;99.90
23137;DHT22;11737;50.558;7.258;2023-04-08T08:12:23;13.40;99.90
23137;DHT22;11737;50.558;7.258;2023-04-08T08:14:51;13.60;99.90
23137;DHT22;11737;50.558;7.258;2023-04-08T08:17:20;13.80;99.90
23137;DHT22;11737;50.558;7.258;2023-04-08T08:19:47;13.90;99.90
23137;DHT22;11737;50.558;7.258;2023-04-08T08:22:15;13.90;99.90
23137;DHT22;11737;50.558;7.258;2023-04-08T08:24:43;13.90;99.90
23137;DHT22;11737;50.558;7.258;2023-04-08T08:27:10;13.90;99.90
23137;DHT22;11737;50.558;7.258;2023-04-08T08:29:38;13.70;99.90
23137;DHT22;11737;50.558;7.258;2023-04-08T08:32:05;13.70;99.90
23137;DHT22;11737;50.558;7.258;2023-04-08T08:34:33;13.70;99.90
23137;DHT22;11737;50.558;7.258;2023-04-08T08:37:00;13.60;99.90
23137;DHT22;11737;50.558;7.258;2023-04-08T08:39:27;13.70;99.90
23137;DHT22;11737;50.558;7.258;2023-04-08T08:41:56;13.90;99.90
23137;DHT22;11737;50.558;7.258;2023-04-08T08:44:23;14.10;99.90
23137;DHT22;11737;50.558;7.258;2023-04-08T08:46:51;14.30;99.90
23137;DHT22;11737;50.558;7.258;2023-04-08T08:49:19;14.40;99.90
23137;DHT22;11737;50.558;7.258;2023-04-08T08:51:47;14.40;99.90
23137;DHT22;11737;50.558;7.258;2023-04-08T08:54:16;14.30;99.90
23137;DHT22;11737;50.558;7.258;2023-04-08T08:56:43;14.20;99.90
23137;DHT22;11737;50.558;7.258;2023-04-08T08:59:10;14.30;99.90
23137;DHT22;11737;50.558;7.258;2023-04-08T09:01:39;14.40;99.90
23137;DHT22;11737;50.558;7.258;2023-04-08T09:04:11;14.50;99.90
23137;DHT22;11737;50.558;7.258;2023-04-08T09:06:39;14.50;99.90
23137;DHT22;11737;50.558;7.258;2023-04-08T09:09:07;14.60;99.90
23137;DHT22;11737;50.558;7.258;2023-04-08T09:11:40;14.60;99.90
23137;DHT22;11737;50.558;7.258;2023-04-08T09:14:24;14.60;99.90
23137;DHT22;11737;50.558;7.258;2023-04-08T09:16:52;14.70;99.90
23137;DHT22;11737;50.558;7.258;2023-04-08T09:19:19;14.80;99.90
23137;DHT22;11737;50.558;7.258;2023-04-08T09:22:04;14.80;99.90
23137;DHT22;11737;50.558;7.258;2023-04-08T09:24:51;14.80;99.90
23137;DHT22;11737;50.558;7.258;2023-04-08T09:27:33;14.90;99.90
23137;DHT22;11737;50.558;7.258;2023-04-08T09:30:12;15.10;99.90
23137;DHT22;11737;50.558;7.258;2023-04-08T09:32:50;15.30;99.90
23137;DHT22;11737;50.558;7.258;2023-04-08T09:35:19;15.40;99.90
23137;DHT22;11737;50.558;7.258;2023-04-08T09:37:48;15.50;99.90
23137;DHT22;11737;50.558;7.258;2023-04-08T09:40:17;15.70;99.90
23137;DHT22;11737;50.558;7.258;2023-04-08T09:42:46;15.80;99.90
23137;DHT22;11737;50.558;7.258;2023-04-08T09:45:17;15.70;99.90
23137;DHT22;11737;50.558;7.258;2023-04-08T09:50:54;15.70;99.90
23137;DHT22;11737;50.558;7.258;2023-04-08T09:56:16;15.60;99.90
23137;DHT22;11737;50.558;7.258;2023-04-08T09:58:51;15.70;99.90
23137;DHT22;11737;50.558;7.258;2023-04-08T10:01:23;15.70;99.90
23137;DHT22;11737;50.558;7.258;2023-04-08T10:03:53;15.50;99.90
23137;DHT22;11737;50.558;7.258;2023-04-08T10:06:26;15.50;99.90
23137;DHT22;11737;50.558;7.258;2023-04-08T10:08:57;15.60;99.90
23137;DHT22;11737;50.558;7.258;2023-04-08T10:11:25;15.60;99.90
23137;DHT22;11737;50.558;7.258;2023-04-08T10:13:53;15.60;99.90
23137;DHT22;11737;50.558;7.258;2023-04-08T10:16:22;15.50;99.90
23137;DHT22;11737;50.558;7.258;2023-04-08T10:18:52;15.40;99.90
23137;DHT22;11737;50.558;7.258;2023-04-08T10:21:37;15.40;99.90
23137;DHT22;11737;50.558;7.258;2023-04-08T10:24:10;15.30;99.90
23137;DHT22;11737;50.558;7.258;2023-04-08T10:26:44;15.10;99.90
23137;DHT22;11737;50.558;7.258;2023-04-08T10:31:48;14.60;99.90
23137;DHT22;11737;50.558;7.258;2023-04-08T10:34:17;14.60;99.90
23137;DHT22;11737;50.558;7.258;2023-04-08T10:36:45;14.70;99.90
23137;DHT22;11737;50.558;7.258;2023-04-08T10:39:14;14.70;99.90
23137;DHT22;11737;50.558;7.258;2023-04-08T10:41:47;14.80;99.90
23137;DHT22;11737;50.558;7.258;2023-04-08T10:44:19;14.90;99.90
23137;DHT22;11737;50.558;7.258;2023-04-08T10:49:36;15.00;99.90
23137;DHT22;11737;50.558;7.258;2023-04-08T10:52:07;14.80;99.90
23137;DHT22;11737;50.558;7.258;2023-04-08T10:54:35;14.80;99.90
23137;DHT22;11737;50.558;7.258;2023-04-08T10:57:03;14.60;99.90
23137;DHT22;11737;50.558;7.258;2023-04-08T10:59:32;14.70;99.90
23137;DHT22;11737;50.558;7.258;2023-04-08T11:01:59;14.80;99.90
23137;DHT22;11737;50.558;7.258;2023-04-08T11:04:27;14.90;99.90
23137;DHT22;11737;50.558;7.258;2023-04-08T11:06:55;14.90;99.90
23137;DHT22;11737;50.558;7.258;2023-04-08T11:09:23;14.80;99.90
23137;DHT22;11737;50.558;7.258;2023-04-08T11:11:51;14.80;99.90
23137;DHT22;11737;50.558;7.258;2023-04-08T11:14:19;14.70;99.90
23137;DHT22;11737;50.558;7.258;2023-04-08T11:16:47;14.70;99.90
23137;DHT22;11737;50.558;7.258;2023-04-08T11:19:15;14.80;99.90
23137;DHT22;11737;50.558;7.258;2023-04-08T11:21:43;15.00;99.90
23137;DHT22;11737;50.558;7.258;2023-04-08T11:24:12;15.20;99.90
23137;DHT22;11737;50.558;7.258;2023-04-08T11:26:41;15.30;99.90
23137;DHT22;11737;50.558;7.258;2023-04-08T11:29:10;15.40;99.90
23137;DHT22;11737;50.558;7.258;2023-04-08T11:34:30;15.50;99.90
23137;DHT22;11737;50.558;7.258;2023-04-08T11:36:58;15.50;99.90
23137;DHT22;11737;50.558;7.258;2023-04-08T11:39:25;15.50;99.90
23137;DHT22;11737;50.558;7.258;2023-04-08T11:41:53;15.60;99.90
23137;DHT22;11737;50.558;7.258;2023-04-08T11:44:31;15.70;99.90
23137;DHT22;11737;50.558;7.258;2023-04-08T11:46:58;15.80;99.90
23137;DHT22;11737;50.558;7.258;2023-04-08T11:49:28;15.80;99.90
23137;DHT22;11737;50.558;7.258;2023-04-08T11:51:58;15.90;99.90
23137;DHT22;11737;50.558;7.258;2023-04-08T11:54:29;16.00;99.90
23137;DHT22;11737;50.558;7.258;2023-04-08T11:56:58;15.90;99.90
23137;DHT22;11737;50.558;7.258;2023-04-08T11:59:26;16.00;99.90
23137;DHT22;11737;50.558;7.258;2023-04-08T12:01:54;16.00;99.90
23137;DHT22;11737;50.558;7.258;2023-04-08T12:04:21;15.80;99.90
23137;DHT22;11737;50.558;7.258;2023-04-08T12:06:49;15.80;99.90
23137;DHT22;11737;50.558;7.258;2023-04-08T12:09:16;15.70;99.90
23137;DHT22;11737;50.558;7.258;2023-04-08T12:11:44;15.70;99.90
23137;DHT22;11737;50.558;7.258;2023-04-08T12:14:12;15.60;99.90
23137;DHT22;11737;50.558;7.258;2023-04-08T12:16:39;15.60;99.90
23137;DHT22;11737;50.558;7.258;2023-04-08T12:19:07;15.60;99.90
23137;DHT22;11737;50.558;7.258;2023-04-08T12:21:34;15.50;99.90
23137;DHT22;11737;50.558;7.258;2023-04-08T12:24:02;15.40;99.90
23137;DHT22;11737;50.558;7.258;2023-04-08T12:26:29;15.30;99.90
23137;DHT22;11737;50.558;7.258;2023-04-08T12:28:57;15.30;99.90
23137;DHT22;11737;50.558;7.258;2023-04-08T12:31:24;15.30;99.90
23137;DHT22;11737;50.558;7.258;2023-04-08T12:33:53;15.30;99.90
23137;DHT22;11737;50.558;7.258;2023-04-08T12:36:21;15.30;99.90
23137;DHT22;11737;50.558;7.258;2023-04-08T12:38:48;15.30;99.90
23137;DHT22;11737;50.558;7.258;2023-04-08T12:41:16;15.40;99.90
23137;DHT22;11737;50.558;7.258;2023-04-08T12:43:43;15.50;99.90
23137;DHT22;11737;50.558;7.258;2023-04-08T12:46:11;15.60;99.90
23137;DHT22;11737;50.558;7.258;2023-04-08T12:48:38;15.60;99.90
23137;DHT22;11737;50.558;7.258;2023-04-08T12:51:06;15.70;99.90
23137;DHT22;11737;50.558;7.258;2023-04-08T12:53:35;15.70;99.90
23137;DHT22;11737;50.558;7.258;2023-04-08T12:56:03;15.80;99.90
23137;DHT22;11737;50.558;7.258;2023-04-08T12:58:49;15.80;99.90
23137;DHT22;11737;50.558;7.258;2023-04-08T13:01:17;15.70;99.90
23137;DHT22;11737;50.558;7.258;2023-04-08T13:03:44;15.80;99.90
23137;DHT22;11737;50.558;7.258;2023-04-08T13:06:13;15.80;99.90
23137;DHT22;11737;50.558;7.258;2023-04-08T13:08:41;16.00;99.90
23137;DHT22;11737;50.558;7.258;2023-04-08T13:11:08;15.90;99.90
23137;DHT22;11737;50.558;7.258;2023-04-08T13:13:36;15.90;99.90
23137;DHT22;11737;50.558;7.258;2023-04-08T13:16:04;15.90;99.90
23137;DHT22;11737;50.558;7.258;2023-04-08T13:18:31;16.10;99.90
23137;DHT22;11737;50.558;7.258;2023-04-08T13:20:59;16.20;99.90
23137;DHT22;11737;50.558;7.258;2023-04-08T13:23:26;16.00;99.90
23137;DHT22;11737;50.558;7.258;2023-04-08T13:25:54;16.00;99.90
23137;DHT22;11737;50.558;7.258;2023-04-08T13:28:21;16.00;99.90
23137;DHT22;11737;50.558;7.258;2023-04-08T13:30:49;16.00;99.90
23137;DHT22;11737;50.558;7.258;2023-04-08T13:33:16;16.10;99.90
23137;DHT22;11737;50.558;7.258;2023-04-08T13:35:44;16.10;99.90
23137;DHT22;11737;50.558;7.258;2023-04-08T13:38:11;16.10;99.90
23137;DHT22;11737;50.558;7.258;2023-04-08T13:40:39;16.20;99.90
23137;DHT22;11737;50.558;7.258;2023-04-08T13:43:06;16.30;99.90
23137;DHT22;11737;50.558;7.258;2023-04-08T13:45:34;16.30;99.90
23137;DHT22;11737;50.558;7.258;2023-04-08T13:48:01;16.40;99.90
23137;DHT22;11737;50.558;7.258;2023-04-08T13:50:30;16.40;99.90
23137;DHT22;11737;50.558;7.258;2023-04-08T13:52:58;16.50;99.90
23137;DHT22;11737;50.558;7.258;2023-04-08T13:55:25;16.50;99.90
23137;DHT22;11737;50.558;7.258;2023-04-08T13:57:53;16.60;99.90
23137;DHT22;11737;50.558;7.258;2023-04-08T14:00:21;16.40;99.90
23137;DHT22;11737;50.558;7.258;2023-04-08T14:02:50;16.20;99.90
23137;DHT22;11737;50.558;7.258;2023-04-08T14:05:18;16.00;99.90
23137;DHT22;11737;50.558;7.258;2023-04-08T14:07:46;15.90;99.90
23137;DHT22;11737;50.558;7.258;2023-04-08T14:10:13;15.80;99.90
23137;DHT22;11737;50.558;7.258;2023-04-08T14:12:42;15.70;99.90
23137;DHT22;11737;50.558;7.258;2023-04-08T14:15:12;15.60;99.90
23137;DHT22;11737;50.558;7.258;2023-04-08T14:17:39;15.40;99.90
23137;DHT22;11737;50.558;7.258;2023-04-08T14:20:07;15.40;99.90
23137;DHT22;11737;50.558;7.258;2023-04-08T14:22:35;15.50;99.90
23137;DHT22;11737;50.558;7.258;2023-04-08T14:25:02;15.40;99.90
23137;DHT22;11737;50.558;7.258;2023-04-08T14:27:30;15.40;99.90
23137;DHT22;11737;50.558;7.258;2023-04-08T14:29:57;15.40;99.90
23137;DHT22;11737;50.558;7.258;2023-04-08T14:32:25;15.30;99.90
23137;DHT22;11737;50.558;7.258;2023-04-08T14:34:52;15.40;99.90
23137;DHT22;11737;50.558;7.258;2023-04-08T14:37:20;15.50;99.90
23137;DHT22;11737;50.558;7.258;2023-04-08T14:39:47;15.50;99.90
23137;DHT22;11737;50.558;7.258;2023-04-08T14:42:15;15.70;99.90
23137;DHT22;11737;50.558;7.258;2023-04-08T14:44:43;15.70;99.90
23137;DHT22;11737;50.558;7.258;2023-04-08T14:47:11;15.70;99.90
23137;DHT22;11737;50.558;7.258;2023-04-08T14:49:38;15.70;99.90
23137;DHT22;11737;50.558;7.258;2023-04-08T14:52:06;15.80;99.90
23137;DHT22;11737;50.558;7.258;2023-04-08T14:54:33;15.90;99.90
23137;DHT22;11737;50.558;7.258;2023-04-08T14:57:01;15.90;99.90
23137;DHT22;11737;50.558;7.258;2023-04-08T14:59:29;16.00;99.90
23137;DHT22;11737;50.558;7.258;2023-04-08T15:01:56;16.10;99.90
23137;DHT22;11737;50.558;7.258;2023-04-08T15:04:24;16.10;99.90
23137;DHT22;11737;50.558;7.258;2023-04-08T15:06:51;16.20;99.90
23137;DHT22;11737;50.558;7.258;2023-04-08T15:09:19;16.20;99.90
23137;DHT22;11737;50.558;7.258;2023-04-08T15:11:47;16.20;99.90
23137;DHT22;11737;50.558;7.258;2023-04-08T15:14:14;16.10;99.90
23137;DHT22;11737;50.558;7.258;2023-04-08T15:16:42;16.00;99.90
23137;DHT22;11737;50.558;7.258;2023-04-08T15:19:09;15.90;99.90
23137;DHT22;11737;50.558;7.258;2023-04-08T15:21:37;16.40;99.90
23137;DHT22;11737;50.558;7.258;2023-04-08T15:24:04;17.00;99.90
23137;DHT22;11737;50.558;7.258;2023-04-08T15:26:32;17.10;99.90
23137;DHT22;11737;50.558;7.258;2023-04-08T15:28:59;17.00;99.90
23137;DHT22;11737;50.558;7.258;2023-04-08T15:31:29;16.80;99.50
23137;DHT22;11737;50.558;7.258;2023-04-08T15:33:57;16.50;99.60
23137;DHT22;11737;50.558;7.258;2023-04-08T15:36:25;16.30;99.90
23137;DHT22;11737;50.558;7.258;2023-04-08T15:38:53;16.20;99.90
23137;DHT22;11737;50.558;7.258;2023-04-08T15:41:20;16.00;99.90
23137;DHT22;11737;50.558;7.258;2023-04-08T15:43:48;15.90;99.90
23137;DHT22;11737;50.558;7.258;2023-04-08T15:46:19;15.80;99.90
23137;DHT22;11737;50.558;7.258;2023-04-08T15:48:48;15.70;99.90
23137;DHT22;11737;50.558;7.258;2023-04-08T15:51:16;15.70;99.90
23137;DHT22;11737;50.558;7.258;2023-04-08T15:53:43;15.60;99.90
23137;DHT22;11737;50.558;7.258;2023-04-08T15:56:15;15.70;99.90
23137;DHT22;11737;50.558;7.258;2023-04-08T15:58:44;15.80;99.90
23137;DHT22;11737;50.558;7.258;2023-04-08T16:01:12;15.80;99.90
23137;DHT22;11737;50.558;7.258;2023-04-08T16:03:39;15.80;99.90
23137;DHT22;11737;50.558;7.258;2023-04-08T16:06:07;15.80;99.90
23137;DHT22;11737;50.558;7.258;2023-04-08T16:08:35;15.80;99.90
23137;DHT22;11737;50.558;7.258;2023-04-08T16:11:04;15.70;99.90